Terminal Aerodrome Forecast
Issued by NWS

Current Version | Previous Version | Graphics & Text | Print | Product List | Glossary Off
Versions: 1 2 3 4 5 6 7 8 9 10 11 12 13 14 15 16 17 18 19 20 21 22 23 24 25

000
FTUS41 KRLX 220200 AAA
TAFCKB
TAF AMD
KCKB 220215Z 2202/2224 31009KT P6SM SCT040
     FM220500 29007KT P6SM BKN035
     FM220800 29007KT P6SM OVC024
     FM221800 30008KT P6SM BKN035=

USA.gov is the U.S. government's official web portal to all federal, state and local government web resources and services.